Quequen, Argentina
Current Conditions -  °F | °C
As of 5:00 PM on Friday 28 Nov 2014 (Local Time) from SAZM Reporting Station
Clear Clear  
Wind Chill: 82°   Ceiling: Unl
Heat Index: 82°   Visibility: 6mi
Dew Point: 54°   Wind: 17mph
Humidity: 37%   Direction: 320°NW
Pressure: 29.85"   Gusts: NA
Location:  38.53°S, 58.7°W
Report Text: SAZM 282000Z 32015KT CAVOK 28/12 Q1011
Loading
Personal Weather Stations






























Interactive Weather Map New forecast layout! Learn more

10-Day Weather Forecast

Advertisements
Track Severe Weather on mobile